createdAt,value
2022-11-08T00:01:44.413Z,16.10
2022-11-08T00:04:16.892Z,16.30
2022-11-08T00:07:03.383Z,14.85
2022-11-08T00:09:50.382Z,15.65
2022-11-08T00:12:36.939Z,16.25
2022-11-08T00:15:07.142Z,18.60
2022-11-08T00:17:37.752Z,15.98
2022-11-08T00:20:10.426Z,15.32
2022-11-08T00:22:42.047Z,14.48
2022-11-08T00:25:12.195Z,16.70
2022-11-08T00:38:23.108Z,16.98
2022-11-08T00:40:54.823Z,15.68
2022-11-08T00:43:26.959Z,12.98
2022-11-08T00:45:55.802Z,15.57
2022-11-08T00:48:24.491Z,14.40
2022-11-08T00:51:03.919Z,14.02
2022-11-08T00:53:34.824Z,15.05
2022-11-08T00:56:04.536Z,15.60
2022-11-08T00:58:33.702Z,15.18
2022-11-08T01:01:02.652Z,14.82
2022-11-08T01:03:31.847Z,15.55
2022-11-08T01:06:08.600Z,20.30
2022-11-08T01:08:39.178Z,13.55
2022-11-08T01:11:10.110Z,14.85
2022-11-08T01:13:42.164Z,13.40
2022-11-08T01:16:13.775Z,15.38
2022-11-08T01:18:45.938Z,15.70
2022-11-08T01:23:50.871Z,15.15
2022-11-08T01:26:22.121Z,14.57
2022-11-08T01:28:53.271Z,12.85
2022-11-08T01:31:24.195Z,13.23
2022-11-08T01:33:58.494Z,14.68
2022-11-08T01:36:30.133Z,14.00
2022-11-08T01:39:00.534Z,14.65
2022-11-08T01:41:29.740Z,14.93
2022-11-08T01:43:59.240Z,17.73
2022-11-08T01:46:42.915Z,15.30
2022-11-08T01:49:28.208Z,14.27
2022-11-08T01:52:07.808Z,11.80
2022-11-08T01:54:42.958Z,13.07
2022-11-08T01:57:22.111Z,11.07
2022-11-08T01:59:55.762Z,13.63
2022-11-08T02:02:25.146Z,12.73
2022-11-08T02:04:56.486Z,12.55
2022-11-08T02:07:26.726Z,13.38
2022-11-08T02:09:58.663Z,14.45
2022-11-08T02:12:29.507Z,15.52
2022-11-08T02:15:04.838Z,14.77
2022-11-08T02:17:33.658Z,16.25
2022-11-08T02:20:04.600Z,15.40
2022-11-08T02:22:42.010Z,15.32
2022-11-08T02:25:15.753Z,14.35
2022-11-08T02:27:46.634Z,15.38
2022-11-08T02:30:15.726Z,13.52
2022-11-08T02:32:46.216Z,15.30
2022-11-08T02:35:22.564Z,16.23
2022-11-08T02:37:51.894Z,16.83
2022-11-08T02:40:22.580Z,13.45
2022-11-08T02:42:54.699Z,13.00
2022-11-08T02:45:23.267Z,13.65
2022-11-08T02:47:54.693Z,14.40
2022-11-08T02:50:23.841Z,12.60
2022-11-08T02:52:52.697Z,12.68
2022-11-08T02:55:23.155Z,14.77
2022-11-08T02:57:52.056Z,15.18
2022-11-08T03:00:21.048Z,14.40
2022-11-08T03:02:53.301Z,14.80
2022-11-08T03:05:23.607Z,14.60
2022-11-08T03:07:52.763Z,16.67
2022-11-08T03:10:25.700Z,13.52
2022-11-08T03:12:58.972Z,13.82
2022-11-08T03:15:27.753Z,13.07
2022-11-08T03:17:57.382Z,13.05
2022-11-08T03:20:32.176Z,11.43
2022-11-08T03:23:03.086Z,11.57
2022-11-08T03:25:41.042Z,12.55
2022-11-08T03:28:10.974Z,10.52
2022-11-08T03:30:42.519Z,13.70
2022-11-08T03:33:11.382Z,13.45
2022-11-08T03:35:40.056Z,13.05
2022-11-08T03:38:12.293Z,13.40
2022-11-08T03:40:42.559Z,13.50
2022-11-08T03:43:11.842Z,11.80
2022-11-08T03:45:40.961Z,12.27
2022-11-08T03:48:10.187Z,13.48
2022-11-08T03:50:38.711Z,14.02
2022-11-08T03:53:09.268Z,14.60
2022-11-08T03:55:40.482Z,11.63
2022-11-08T03:58:10.819Z,10.07
2022-11-08T04:00:44.879Z,12.98
2022-11-08T04:03:16.657Z,13.18
2022-11-08T04:08:16.902Z,14.30
2022-11-08T04:10:47.190Z,11.77
2022-11-08T04:13:37.612Z,10.63
2022-11-08T04:16:07.279Z,15.27
2022-11-08T04:19:08.630Z,17.77
2022-11-08T04:21:38.593Z,12.48
2022-11-08T04:24:08.733Z,14.30
2022-11-08T04:26:39.779Z,13.88
2022-11-08T04:29:14.410Z,15.17
2022-11-08T04:31:46.524Z,10.95
2022-11-08T04:34:21.473Z,12.68
2022-11-08T04:36:53.939Z,12.75
2022-11-08T04:39:25.809Z,13.63
2022-11-08T04:42:01.896Z,14.80
2022-11-08T04:44:48.422Z,12.45
2022-11-08T04:47:17.285Z,12.65
2022-11-08T04:52:18.439Z,12.95
2022-11-08T04:54:49.265Z,13.68
2022-11-08T04:59:58.389Z,13.88
2022-11-08T05:02:26.994Z,9.60
2022-11-08T05:04:57.361Z,11.60
2022-11-08T05:07:26.310Z,11.63
2022-11-08T05:10:02.192Z,14.77
2022-11-08T05:12:36.425Z,15.68
2022-11-08T05:15:11.362Z,13.00
2022-11-08T05:17:44.114Z,13.85
2022-11-08T05:20:37.811Z,12.10
2022-11-08T05:23:26.841Z,14.50
2022-11-08T05:26:06.934Z,14.18
2022-11-08T05:28:58.943Z,11.55
2022-11-08T05:31:35.563Z,13.07
2022-11-08T05:34:11.770Z,12.15
2022-11-08T05:36:56.352Z,13.30
2022-11-08T05:39:31.927Z,13.00
2022-11-08T05:42:20.185Z,13.10
2022-11-08T05:45:01.972Z,12.27
2022-11-08T05:47:38.841Z,14.05
2022-11-08T05:50:15.474Z,12.75
2022-11-08T05:52:56.921Z,14.23
2022-11-08T05:55:34.737Z,15.27
2022-11-08T05:58:07.980Z,16.33
2022-11-08T06:00:43.714Z,19.05
2022-11-08T06:03:29.968Z,14.90
2022-11-08T06:06:07.030Z,11.93
2022-11-08T06:09:12.572Z,14.70
2022-11-08T06:12:11.888Z,10.77
2022-11-08T06:14:54.833Z,11.35
2022-11-08T06:18:24.553Z,14.07
2022-11-08T06:21:41.654Z,13.20
2022-11-08T06:32:25.012Z,13.95
2022-11-08T06:36:12.627Z,10.82
2022-11-08T06:39:20.412Z,13.88
2022-11-08T06:42:19.705Z,11.57
2022-11-08T06:53:28.946Z,12.40
2022-11-08T07:09:09.819Z,13.27
2022-11-08T07:12:36.194Z,11.73
2022-11-08T07:16:04.898Z,17.00
2022-11-08T07:19:40.212Z,12.75
2022-11-08T07:23:02.733Z,14.45
2022-11-08T07:30:14.717Z,12.88
2022-11-08T07:34:05.975Z,15.80
2022-11-08T07:42:49.695Z,15.88
2022-11-08T08:22:44.537Z,13.93
2022-11-08T09:13:30.697Z,7.85
2022-11-08T09:16:31.452Z,13.45
2022-11-08T09:57:14.575Z,8.52
2022-11-08T10:04:55.662Z,8.95
2022-11-08T10:22:12.193Z,9.50
2022-11-08T10:30:34.128Z,8.25
2022-11-08T10:34:04.060Z,6.07
2022-11-08T13:07:20.055Z,39.58
2022-11-08T13:10:27.105Z,29.27
2022-11-08T13:13:56.868Z,27.40
2022-11-08T13:16:52.581Z,19.20
2022-11-08T13:20:10.761Z,21.13
2022-11-08T13:23:49.013Z,28.30
2022-11-08T13:30:23.548Z,22.55
2022-11-08T13:33:38.708Z,22.65
2022-11-08T13:43:24.981Z,25.40
2022-11-08T13:50:47.905Z,19.67
2022-11-08T13:54:03.065Z,16.65
2022-11-08T13:58:35.593Z,19.77
2022-11-08T14:02:05.318Z,46.03
2022-11-08T14:05:10.325Z,27.67
2022-11-08T14:45:33.246Z,41.35
2022-11-08T14:48:24.718Z,30.27
2022-11-08T14:51:11.709Z,18.13
2022-11-08T14:53:57.325Z,15.07
2022-11-08T14:57:12.689Z,18.50
2022-11-08T15:00:27.474Z,20.73
2022-11-08T15:03:32.883Z,26.17
2022-11-08T15:06:14.657Z,23.52
2022-11-08T15:09:05.972Z,28.17
2022-11-08T15:11:52.498Z,22.03
2022-11-08T15:15:08.862Z,28.98
2022-11-08T15:18:22.540Z,24.58
2022-11-08T15:21:00.290Z,26.42
2022-11-08T15:24:14.783Z,20.10
2022-11-08T15:29:28.409Z,16.63
2022-11-08T15:32:03.901Z,17.77
2022-11-08T15:34:55.508Z,22.05
2022-11-08T15:37:38.191Z,18.58
2022-11-08T15:40:25.220Z,23.48
2022-11-08T15:42:54.861Z,18.85
2022-11-08T15:45:33.317Z,14.48
2022-11-08T15:48:25.240Z,13.48
2022-11-08T15:51:02.496Z,14.60
2022-11-08T15:53:37.977Z,10.85
2022-11-08T15:56:14.330Z,8.93
2022-11-08T15:58:45.278Z,22.88
2022-11-08T16:01:26.195Z,19.70
2022-11-08T16:03:56.818Z,22.40
2022-11-08T16:06:37.614Z,28.58
2022-11-08T16:09:27.567Z,28.67
2022-11-08T16:12:01.398Z,22.92
2022-11-08T16:14:36.010Z,30.35
2022-11-08T16:17:08.794Z,23.17
2022-11-08T16:19:41.025Z,28.85
2022-11-08T16:22:19.410Z,27.27
2022-11-08T16:25:01.037Z,28.83
2022-11-08T16:27:57.777Z,22.17
2022-11-08T16:30:30.227Z,19.80
2022-11-08T16:32:58.739Z,19.85
2022-11-08T16:35:28.299Z,16.58
2022-11-08T16:38:05.793Z,15.55
2022-11-08T16:40:41.448Z,15.38
2022-11-08T16:43:28.021Z,15.27
2022-11-08T16:46:07.586Z,16.08
2022-11-08T16:48:44.589Z,17.00
2022-11-08T16:51:20.331Z,23.65
2022-11-08T16:53:55.931Z,16.67
2022-11-08T16:56:33.057Z,17.23
2022-11-08T16:59:09.636Z,19.25
2022-11-08T17:01:46.957Z,28.23
2022-11-08T17:04:30.337Z,22.50
2022-11-08T17:07:06.887Z,20.38
2022-11-08T17:09:39.367Z,18.90
2022-11-08T17:12:24.727Z,19.95
2022-11-08T17:15:04.555Z,15.68
2022-11-08T17:17:37.235Z,17.17
2022-11-08T17:20:14.304Z,19.77
2022-11-08T17:23:01.333Z,18.77
2022-11-08T17:25:33.154Z,18.35
2022-11-08T17:28:08.701Z,17.02
2022-11-08T17:30:46.330Z,17.05
2022-11-08T17:33:26.946Z,17.17
2022-11-08T17:36:25.876Z,21.23
2022-11-08T17:39:00.495Z,19.10
2022-11-08T17:41:33.920Z,20.60
2022-11-08T17:44:08.242Z,17.48
2022-11-08T17:46:41.229Z,20.42
2022-11-08T17:49:10.896Z,17.75
2022-11-08T17:51:44.282Z,18.85
2022-11-08T17:54:20.041Z,18.42
2022-11-08T17:57:07.252Z,18.42
2022-11-08T17:59:45.651Z,24.23
2022-11-08T18:02:19.902Z,18.58
2022-11-08T18:04:49.531Z,22.80
2022-11-08T18:07:18.998Z,16.98
2022-11-08T18:09:48.262Z,19.83
2022-11-08T18:12:22.260Z,20.90
2022-11-08T18:14:55.531Z,22.30
2022-11-08T18:17:27.532Z,17.30
2022-11-08T18:19:56.273Z,22.15
2022-11-08T18:22:25.521Z,20.48
2022-11-08T18:24:55.303Z,19.50
2022-11-08T18:27:26.944Z,21.67
2022-11-08T18:29:57.429Z,19.40
2022-11-08T18:32:42.541Z,22.15
2022-11-08T18:35:14.944Z,21.38
2022-11-08T18:37:46.207Z,19.77
2022-11-08T18:40:15.312Z,22.67
2022-11-08T18:42:45.070Z,23.08
2022-11-08T18:45:26.586Z,18.60
2022-11-08T18:47:55.887Z,20.55
2022-11-08T18:50:28.196Z,20.15
2022-11-08T18:53:04.852Z,21.60
2022-11-08T18:55:37.722Z,22.73
2022-11-08T18:58:10.608Z,20.38
2022-11-08T19:00:41.094Z,19.83
2022-11-08T19:03:12.863Z,19.83
2022-11-08T19:05:47.711Z,23.90
2022-11-08T19:08:43.445Z,20.33
2022-11-08T19:11:14.758Z,20.08
2022-11-08T19:13:43.917Z,21.33
2022-11-08T19:16:16.918Z,25.67
2022-11-08T19:18:49.764Z,26.77
2022-11-08T19:21:21.663Z,28.73
2022-11-08T19:23:55.341Z,32.55
2022-11-08T19:26:28.816Z,28.77
2022-11-08T19:29:05.482Z,32.13
2022-11-08T19:31:42.200Z,32.63
2022-11-08T19:34:21.007Z,29.65
2022-11-08T19:36:55.677Z,30.52
2022-11-08T19:39:25.204Z,31.10
2022-11-08T19:42:00.270Z,32.88
2022-11-08T19:47:00.785Z,48.55
2022-11-08T19:49:42.217Z,57.25
2022-11-08T19:52:18.055Z,54.80
2022-11-08T19:54:50.694Z,73.03
2022-11-08T19:57:24.247Z,71.60
2022-11-08T19:59:53.550Z,84.70
2022-11-08T20:02:24.159Z,86.40
2022-11-08T20:04:56.508Z,84.85
2022-11-08T20:07:25.151Z,67.85
2022-11-08T20:09:57.499Z,64.07
2022-11-08T20:12:26.451Z,56.72
2022-11-08T20:15:01.750Z,56.28
2022-11-08T20:17:37.691Z,50.60
2022-11-08T20:20:15.057Z,49.40
2022-11-08T20:25:33.661Z,39.28
2022-11-08T20:28:13.418Z,41.05
2022-11-08T20:31:54.136Z,41.05
2022-11-08T20:34:43.714Z,41.08
2022-11-08T20:37:22.565Z,37.25
2022-11-08T20:40:16.173Z,34.67
2022-11-08T20:42:49.311Z,29.90
2022-11-08T20:45:25.903Z,29.92
2022-11-08T20:48:02.450Z,32.03
2022-11-08T20:50:55.915Z,27.23
2022-11-08T20:53:34.722Z,31.02
2022-11-08T20:56:05.699Z,28.73
2022-11-08T20:58:42.642Z,24.67
2022-11-08T21:01:24.612Z,23.35
2022-11-08T21:03:58.782Z,21.40
2022-11-08T21:06:37.765Z,22.15
2022-11-08T21:09:41.639Z,20.00
2022-11-08T21:12:20.844Z,19.13
2022-11-08T21:14:56.271Z,23.00
2022-11-08T21:17:35.841Z,17.10
2022-11-08T21:20:09.830Z,22.05
2022-11-08T21:22:47.768Z,19.20
2022-11-08T21:25:22.144Z,20.05
2022-11-08T21:27:57.953Z,18.38
2022-11-08T21:30:36.377Z,19.20
2022-11-08T21:33:09.880Z,15.88
2022-11-08T21:35:39.896Z,21.23
2022-11-08T21:38:13.096Z,21.63
2022-11-08T21:40:42.602Z,17.50
2022-11-08T21:43:11.579Z,17.42
2022-11-08T21:45:41.307Z,20.17
2022-11-08T21:48:15.157Z,17.80
2022-11-08T21:50:55.979Z,18.88
2022-11-08T21:53:29.698Z,17.77
2022-11-08T21:56:04.458Z,17.60
2022-11-08T21:58:33.769Z,17.15
2022-11-08T22:02:05.033Z,20.05
2022-11-08T22:04:39.145Z,18.52
2022-11-08T22:07:11.649Z,16.38
2022-11-08T22:10:18.718Z,18.05
2022-11-08T22:13:08.790Z,19.90
2022-11-08T22:15:53.222Z,18.05
2022-11-08T22:19:03.580Z,19.30
2022-11-08T22:21:41.971Z,19.75
2022-11-08T22:24:34.439Z,20.85
2022-11-08T22:27:23.072Z,20.20
2022-11-08T22:29:57.328Z,21.50
2022-11-08T22:32:56.769Z,20.15
2022-11-08T22:35:38.480Z,24.52
2022-11-08T22:38:29.536Z,21.15
2022-11-08T22:44:54.936Z,20.83
2022-11-08T22:47:34.529Z,21.27
2022-11-08T22:56:07.059Z,18.50
2022-11-08T22:58:46.370Z,18.70
2022-11-08T23:01:16.784Z,18.83
2022-11-08T23:03:48.613Z,19.30
2022-11-08T23:06:26.794Z,18.65
2022-11-08T23:08:58.827Z,17.95
2022-11-08T23:14:51.211Z,17.52
2022-11-08T23:17:26.668Z,18.08
2022-11-08T23:20:23.305Z,16.95
2022-11-08T23:23:22.497Z,16.80
2022-11-08T23:25:54.669Z,20.02
2022-11-08T23:28:50.291Z,17.38
2022-11-08T23:31:40.531Z,19.40
2022-11-08T23:34:43.796Z,17.77
2022-11-08T23:37:43.377Z,20.60
2022-11-08T23:40:34.337Z,20.73
2022-11-08T23:43:32.095Z,21.40
2022-11-08T23:46:10.174Z,19.33
2022-11-08T23:48:51.351Z,20.17
2022-11-08T23:51:49.937Z,22.42
2022-11-08T23:54:36.559Z,21.70
2022-11-08T23:57:17.356Z,23.75
